Time;durP1;ratioP1;P1;durP2;ratioP2;P2;SDS_P1;SDS_P2;PMS_P1;PMS_P2;Temp;Humidity;BMP_temperature;BMP_pressure;BME280_temperature;BME280_humidity;BME280_pressure;Samples;Min_cycle;Max_cycle;Signal;HPM_P1;HPM_P2
2023/06/15 00:01:04;;;;;;;1.60;1.50;;;;;;;17.95;49.66;101745.56;5054336;28;20037;-80
2023/06/15 00:03:30;;;;;;;1.90;1.70;;;;;;;17.88;49.42;101728.28;5053316;28;20150;-80
2023/06/15 00:05:56;;;;;;;1.50;1.40;;;;;;;17.85;49.44;101734.47;5054149;28;20023;-80
2023/06/15 00:08:21;;;;;;;1.50;1.40;;;;;;;17.82;49.30;101731.09;5053313;28;20028;-80
2023/06/15 00:10:47;;;;;;;1.67;1.57;;;;;;;17.78;49.25;101729.50;5053411;28;20043;-80
2023/06/15 00:13:13;;;;;;;1.67;1.58;;;;;;;17.72;49.98;101730.53;5053926;28;20021;-80
2023/06/15 00:15:39;;;;;;;1.87;1.30;;;;;;;17.69;50.24;101728.00;5054143;28;20025;-80
2023/06/15 00:18:05;;;;;;;1.50;1.40;;;;;;;17.65;50.17;101729.88;5053222;28;20033;-80
2023/06/15 00:20:30;;;;;;;1.60;1.50;;;;;;;17.61;50.64;101733.47;5053906;28;20036;-80
2023/06/15 00:22:58;;;;;;;1.90;1.67;;;;;;;17.57;50.22;101731.84;5052875;28;20025;-80
2023/06/15 00:25:23;;;;;;;1.48;1.38;;;;;;;17.53;50.54;101733.72;5052825;28;20021;-79
2023/06/15 00:27:48;;;;;;;1.80;1.70;;;;;;;17.50;50.49;101735.56;5053557;28;20051;-80
2023/06/15 00:30:16;;;;;;;1.70;1.60;;;;;;;17.47;50.65;101741.78;5053272;28;20128;-80
2023/06/15 00:32:42;;;;;;;1.55;1.45;;;;;;;17.42;50.92;101739.31;5053406;28;20055;-80
2023/06/15 00:35:07;;;;;;;1.30;1.30;;;;;;;17.34;50.93;101736.03;5053461;28;20029;-80
2023/06/15 00:37:32;;;;;;;1.70;1.60;;;;;;;17.29;50.92;101741.41;5052832;28;20484;-80
2023/06/15 00:39:58;;;;;;;1.70;1.60;;;;;;;17.24;51.37;101738.06;5052488;28;20124;-79
2023/06/15 00:42:23;;;;;;;1.60;1.50;;;;;;;17.23;51.09;101745.97;5053389;28;20029;-79
2023/06/15 00:44:48;;;;;;;1.67;1.57;;;;;;;17.17;51.34;101739.13;5052734;28;20029;-80
2023/06/15 00:47:18;;;;;;;1.70;1.60;;;;;;;17.15;51.69;101756.72;5052813;28;20056;-80
2023/06/15 00:49:47;;;;;;;1.67;1.58;;;;;;;17.11;51.40;101749.81;5051961;22;20452;-79
2023/06/15 00:52:16;;;;;;;1.90;1.80;;;;;;;17.05;51.65;101745.59;5032538;28;20017;-80
2023/06/15 00:54:43;;;;;;;1.80;1.70;;;;;;;17.02;51.96;101755.31;5033653;28;20100;-80
2023/06/15 00:57:09;;;;;;;;;;;;;;;16.99;51.92;101756.28;5033763;28;20029;-80
2023/06/15 00:59:35;;;;;;;1.95;1.85;;;;;;;16.92;51.96;101754.69;5032603;28;19916;-79
2023/06/15 01:02:03;;;;;;;1.90;1.80;;;;;;;16.87;52.21;101749.56;5033443;28;20026;-80
2023/06/15 01:04:29;;;;;;;1.70;1.60;;;;;;;16.83;52.36;101751.41;5033349;28;20107;-80
2023/06/15 01:07:01;;;;;;;1.90;1.80;;;;;;;16.78;52.83;101749.81;5032100;28;20477;-81
2023/06/15 01:09:30;;;;;;;1.70;1.60;;;;;;;16.74;52.78;101759.53;5032651;28;20030;-79
2023/06/15 01:11:57;;;;;;;2.20;1.70;;;;;;;16.68;53.76;101746.56;5032936;28;20060;-80
2023/06/15 01:14:26;;;;;;;1.85;1.73;;;;;;;16.64;53.93;101748.41;5031928;28;20022;-80
2023/06/15 01:17:02;;;;;;;2.05;1.60;;;;;;;16.60;54.15;101744.19;5032965;28;20033;-80
2023/06/15 01:19:39;;;;;;;1.70;1.60;;;;;;;16.57;54.42;101746.88;5030602;28;20029;-79
2023/06/15 01:22:19;;;;;;;1.30;1.30;;;;;;;16.52;54.04;101747.00;5032311;28;20051;-79
2023/06/15 01:24:57;;;;;;;1.80;1.70;;;;;;;16.48;54.33;101749.72;5033046;28;20029;-80
2023/06/15 01:27:24;;;;;;;1.75;1.65;;;;;;;16.44;55.07;101748.06;5032092;28;20024;-79
2023/06/15 01:29:52;;;;;;;2.00;1.80;;;;;;;16.38;55.11;101749.09;5032876;28;20025;-80
2023/06/15 01:32:18;;;;;;;1.90;1.80;;;;;;;16.35;54.80;101759.63;5032344;28;20095;-80
2023/06/15 01:34:43;;;;;;;1.80;1.70;;;;;;;16.29;55.27;101755.41;5031046;28;20032;-80
2023/06/15 01:37:09;;;;;;;2.00;1.90;;;;;;;16.26;55.32;101758.13;5032450;28;20033;-80
2023/06/15 01:39:34;;;;;;;3.17;1.90;;;;;;;16.21;55.21;101755.59;5032832;28;20056;-80
2023/06/15 01:42:00;;;;;;;1.90;1.80;;;;;;;16.21;55.67;101767.84;5031578;28;20074;-80
2023/06/15 01:44:26;;;;;;;1.80;1.70;;;;;;;16.14;56.14;101763.66;5032036;28;20079;-80
2023/06/15 01:46:51;;;;;;;2.50;1.90;;;;;;;16.11;56.53;101767.19;5032095;28;20088;-78
2023/06/15 01:49:16;;;;;;;2.10;1.90;;;;;;;16.09;56.54;101762.91;5031327;28;20045;-80
2023/06/15 01:51:42;;;;;;;1.90;1.80;;;;;;;16.01;56.42;101765.69;5032389;28;20021;-80
2023/06/15 01:54:07;;;;;;;2.10;1.90;;;;;;;16.00;56.47;101763.97;5032053;28;20071;-80
2023/06/15 01:56:32;;;;;;;1.73;1.63;;;;;;;15.98;56.66;101761.41;5031987;28;20036;-80
2023/06/15 01:58:58;;;;;;;1.70;1.60;;;;;;;15.93;56.45;101754.53;5032162;28;20041;-80
2023/06/15 02:01:23;;;;;;;2.20;1.80;;;;;;;15.92;56.59;101758.94;5031728;28;20033;-80
2023/06/15 02:03:53;;;;;;;1.80;1.70;;;;;;;15.84;56.70;101753.88;5032342;28;20100;-79
2023/06/15 02:06:18;;;;;;;1.90;1.80;;;;;;;15.82;57.06;101749.53;5032042;28;20473;-79
2023/06/15 02:08:43;;;;;;;1.90;1.80;;;;;;;15.85;57.28;101758.22;5032061;28;20029;-80
2023/06/15 02:11:08;;;;;;;2.10;1.90;;;;;;;15.77;57.61;101751.38;5031057;28;20146;-79
2023/06/15 02:13:34;;;;;;;1.70;1.60;;;;;;;15.73;57.37;101754.06;5032197;28;20026;-80
2023/06/15 02:15:59;;;;;;;2.00;1.90;;;;;;;15.69;57.87;101755.03;5032029;28;20053;-79
2023/06/15 02:18:30;;;;;;;2.10;1.90;;;;;;;15.70;57.77;101766.38;5031231;28;20235;-80
2023/06/15 02:20:58;;;;;;;2.28;1.70;;;;;;;15.67;58.22;101753.34;5032533;28;20029;-80
2023/06/15 02:23:24;;;;;;;1.80;1.70;;;;;;;15.65;58.11;101756.00;5031557;28;20021;-79
2023/06/15 02:25:49;;;;;;;1.80;1.70;;;;;;;15.60;58.17;101761.34;5031926;28;20376;-80
2023/06/15 02:28:17;;;;;;;1.97;1.87;;;;;;;15.62;58.51;101768.28;5032199;28;20071;-80
2023/06/15 02:30:43;;;;;;;1.88;1.77;;;;;;;15.53;58.28;101757.13;5031439;28;20159;-80
2023/06/15 02:33:09;;;;;;;2.17;1.97;;;;;;;15.49;58.33;101773.78;5032340;28;20388;-80
2023/06/15 02:35:34;;;;;;;2.17;1.97;;;;;;;15.46;58.16;101773.84;5032429;28;20415;-80
2023/06/15 02:37:59;;;;;;;2.30;2.10;;;;;;;15.44;58.78;101780.84;5031644;28;20268;-80
2023/06/15 02:40:25;;;;;;;2.30;2.10;;;;;;;15.40;58.93;101779.22;5032089;28;20112;-80
2023/06/15 02:42:50;;;;;;;2.53;2.17;;;;;;;15.38;58.61;101775.75;5032104;28;20033;-80
2023/06/15 02:45:15;;;;;;;2.30;2.10;;;;;;;15.37;58.73;101777.50;5048507;28;20048;-80
2023/06/15 02:47:42;;;;;;;2.30;2.10;;;;;;;15.33;59.29;101793.28;5055982;28;20021;-80
2023/06/15 02:50:08;;;;;;;2.25;2.13;;;;;;;15.31;59.39;101792.47;5055898;28;20032;-80
2023/06/15 02:52:40;;;;;;;2.30;2.10;;;;;;;15.26;60.14;101788.19;5054059;28;20039;-80
2023/06/15 02:55:18;;;;;;;2.05;1.95;;;;;;;15.16;59.48;101784.03;5053071;28;20369;-80
2023/06/15 02:57:43;;;;;;;2.30;2.10;;;;;;;15.11;59.66;101772.78;5053801;28;20040;-80
2023/06/15 03:00:12;;;;;;;2.37;2.17;;;;;;;15.17;59.44;101780.53;5054999;28;20044;-79
2023/06/15 03:02:37;;;;;;;2.78;2.13;;;;;;;15.15;59.63;101782.31;5055881;28;20366;-80
2023/06/15 03:05:03;;;;;;;2.30;2.10;;;;;;;15.14;59.93;101788.44;5055448;28;20028;-79
2023/06/15 03:07:30;;;;;;;2.30;2.10;;;;;;;15.09;60.13;101788.53;5054648;28;20053;-79
2023/06/15 03:09:55;;;;;;;2.65;2.30;;;;;;;15.09;60.05;101788.53;5055354;28;20035;-80
2023/06/15 03:12:20;;;;;;;2.40;2.20;;;;;;;15.05;60.40;101789.47;5055429;28;20540;-79
2023/06/15 03:14:50;;;;;;;2.30;2.10;;;;;;;15.06;60.29;101788.56;5042559;28;20086;-80
2023/06/15 03:17:16;;;;;;;2.65;2.30;;;;;;;15.04;60.34;101779.88;5035262;28;20034;-80
2023/06/15 03:19:43;;;;;;;;;;;;;;;15.03;60.42;101793.84;5035339;28;20104;-79
2023/06/15 03:22:09;;;;;;;2.58;2.38;;;;;;;15.01;60.45;101782.59;5035116;28;20047;-79
2023/06/15 03:24:35;;;;;;;2.87;2.33;;;;;;;14.96;60.94;101782.69;5035578;28;20068;-80
2023/06/15 03:27:03;;;;;;;2.87;2.43;;;;;;;14.97;60.69;101796.59;5034519;28;20087;-80
2023/06/15 03:29:37;;;;;;;2.72;2.30;;;;;;;14.93;60.86;101789.69;5034555;28;20114;-80
2023/06/15 03:32:10;;;;;;;2.50;2.30;;;;;;;14.93;61.17;101798.41;5035612;28;20025;-80
2023/06/15 03:34:35;;;;;;;2.58;2.38;;;;;;;14.92;61.22;101791.44;5034564;28;20392;-80
2023/06/15 03:37:01;;;;;;;2.40;2.20;;;;;;;14.91;61.39;101794.09;5035351;28;20025;-80
2023/06/15 03:39:26;;;;;;;3.30;2.30;;;;;;;14.88;61.31;101783.69;5034763;28;20041;-80
2023/06/15 03:41:51;;;;;;;2.77;2.53;;;;;;;14.87;61.51;101787.19;5037977;28;20025;-81
2023/06/15 03:44:17;;;;;;;2.47;2.27;;;;;;;14.87;61.49;101790.66;5053305;28;20017;-80
2023/06/15 03:46:44;;;;;;;3.83;2.43;;;;;;;14.86;61.59;101788.09;5054580;28;20082;-80
2023/06/15 03:49:10;;;;;;;2.30;2.10;;;;;;;14.87;62.17;101787.19;5052911;28;20400;-80
2023/06/15 03:51:37;;;;;;;2.40;2.05;;;;;;;14.82;62.12;101779.44;5054884;28;20044;-80
2023/06/15 03:54:05;;;;;;;2.15;1.95;;;;;;;14.88;61.97;101788.94;5054712;28;20025;-80
2023/06/15 03:56:31;;;;;;;1.90;1.80;;;;;;;14.90;62.45;101787.16;5053252;28;20025;-80
2023/06/15 03:58:56;;;;;;;1.90;1.80;;;;;;;14.90;62.15;101790.63;5054143;28;20028;-80
2023/06/15 04:01:24;;;;;;;2.10;2.00;;;;;;;14.93;62.19;101790.56;5054499;28;20075;-80
2023/06/15 04:03:50;;;;;;;2.15;1.92;;;;;;;14.86;62.26;101777.63;5053801;28;20473;-80
2023/06/15 04:06:16;;;;;;;1.80;1.70;;;;;;;14.95;61.98;101794.03;5056713;22;20048;-80
2023/06/15 04:08:42;;;;;;;2.03;1.90;;;;;;;14.96;62.22;101790.50;5033391;28;20057;-81
2023/06/15 04:11:07;;;;;;;2.17;1.97;;;;;;;14.97;62.58;101794.81;5034273;28;20067;-80
2023/06/15 04:13:32;;;;;;;1.70;1.60;;;;;;;15.02;63.13;101799.13;5033765;28;20052;-80
2023/06/15 04:15:57;;;;;;;1.70;1.60;;;;;;;15.02;62.88;101789.53;5033265;28;20025;-80
2023/06/15 04:18:23;;;;;;;2.30;2.10;;;;;;;15.03;65.43;101796.47;5034349;28;20461;-80
2023/06/15 04:20:49;;;;;;;2.50;2.20;;;;;;;15.13;62.34;101805.00;5034387;28;20113;-80
2023/06/15 04:23:14;;;;;;;2.00;1.90;;;;;;;15.18;62.28;101807.53;5033278;28;20025;-80
2023/06/15 04:25:42;;;;;;;2.73;2.07;;;;;;;15.20;62.15;101806.59;5061899;22;20080;-80
2023/06/15 04:28:11;;;;;;;1.98;1.80;;;;;;;15.25;62.29;101817.00;5054151;28;20393;-80
2023/06/15 04:30:46;;;;;;;2.80;2.10;;;;;;;15.32;62.27;101815.09;5053383;28;20025;-80
2023/06/15 04:33:13;;;;;;;2.25;2.00;;;;;;;15.35;61.81;101812.44;5053577;28;20036;-80
2023/06/15 04:35:45;;;;;;;2.20;2.00;;;;;;;15.44;61.94;101818.34;5054026;28;20412;-80
2023/06/15 04:38:14;;;;;;;2.30;2.10;;;;;;;15.48;61.98;101820.91;5053424;28;20032;-81
2023/06/15 04:40:46;;;;;;;2.40;2.17;;;;;;;15.54;61.83;101823.41;5053837;28;20174;-80
2023/06/15 04:43:11;;;;;;;2.10;2.00;;;;;;;15.57;61.76;101812.88;5053177;28;20033;-80
2023/06/15 04:45:36;;;;;;;2.37;2.17;;;;;;;15.65;62.56;101821.41;5053062;28;20025;-80
2023/06/15 04:48:02;;;;;;;2.30;2.10;;;;;;;15.67;61.85;101817.03;5053436;28;20413;-80
2023/06/15 04:50:29;;;;;;;1.73;1.63;;;;;;;15.73;62.31;101829.13;5053083;28;20031;-81
2023/06/15 04:52:55;;;;;;;2.10;1.90;;;;;;;15.74;61.94;101830.84;5053036;28;20021;-80
2023/06/15 04:55:20;;;;;;;1.90;1.80;;;;;;;15.77;62.15;101822.91;5053758;28;20031;-80
2023/06/15 04:57:46;;;;;;;2.00;1.90;;;;;;;15.81;61.84;101824.56;5053708;28;20025;-80
2023/06/15 05:00:13;;;;;;;2.30;2.10;;;;;;;15.88;61.82;101830.56;5052604;28;20055;-80
2023/06/15 05:02:39;;;;;;;2.35;2.15;;;;;;;15.94;61.72;101830.41;5053494;28;20033;-80
2023/06/15 05:05:04;;;;;;;2.87;2.50;;;;;;;15.97;65.38;101839.97;5052991;28;20388;-80
2023/06/15 05:07:30;;;;;;;3.17;2.50;;;;;;;16.00;63.22;101826.81;5053089;28;20032;-80
2023/06/15 05:09:55;;;;;;;4.23;3.27;;;;;;;16.01;65.84;101834.63;5052948;28;20020;-80
2023/06/15 05:12:22;;;;;;;4.93;3.80;;;;;;;16.09;64.09;101836.22;5051431;28;20037;-79
2023/06/15 05:14:47;;;;;;;3.55;2.90;;;;;;;16.10;63.54;101833.56;5053276;28;20121;-82
2023/06/15 05:17:12;;;;;;;4.10;3.10;;;;;;;16.17;62.32;101835.16;5053367;28;20057;-81
2023/06/15 05:19:38;;;;;;;5.80;3.80;;;;;;;16.24;64.67;101848.97;5052313;28;20694;-81
2023/06/15 05:22:05;;;;;;;4.72;3.35;;;;;;;16.29;64.33;101838.38;5053387;28;20024;-82
2023/06/15 05:24:30;;;;;;;3.28;2.97;;;;;;;16.31;63.51;101826.13;5053198;28;20025;-80
2023/06/15 05:26:56;;;;;;;5.30;3.17;;;;;;;16.39;64.04;101834.66;5051990;28;20045;-78
2023/06/15 05:29:22;;;;;;;7.57;4.70;;;;;;;16.45;64.41;101836.25;5052820;28;20033;-79
2023/06/15 05:31:47;;;;;;;11.30;7.10;;;;;;;16.49;63.33;101830.06;5053081;28;20028;-79
2023/06/15 05:34:12;;;;;;;10.57;6.37;;;;;;;16.56;63.74;101838.59;5052200;28;20482;-78
2023/06/15 05:36:38;;;;;;;11.23;7.43;;;;;;;16.60;63.07;101829.78;5052819;28;20455;-79
2023/06/15 05:39:03;;;;;;;8.53;5.27;;;;;;;16.70;63.75;101841.75;5052450;28;20036;-79
2023/06/15 05:41:29;;;;;;;12.33;7.40;;;;;;;16.75;63.13;101842.50;5051548;28;20025;-78
2023/06/15 05:43:54;;;;;;;13.40;7.57;;;;;;;16.84;62.79;101849.25;5053071;28;20071;-79
2023/06/15 05:46:20;;;;;;;12.97;8.67;;;;;;;16.91;62.63;101845.59;5052697;28;20020;-78
2023/06/15 05:48:45;;;;;;;9.93;6.13;;;;;;;16.98;62.20;101848.97;5051860;28;20461;-79
2023/06/15 05:51:10;;;;;;;6.43;4.10;;;;;;;17.07;62.26;101850.44;5052481;28;20028;-78
2023/06/15 05:53:38;;;;;;;4.60;3.33;;;;;;;17.13;61.50;101853.78;5053048;28;20048;-79
2023/06/15 05:56:04;;;;;;;3.42;2.97;;;;;;;17.17;61.31;101844.06;5052173;28;20071;-78
2023/06/15 05:58:29;;;;;;;3.70;3.30;;;;;;;17.24;61.70;101843.00;5052917;28;20469;-79
2023/06/15 06:00:54;;;;;;;12.43;7.33;;;;;;;17.64;61.94;101848.91;5052675;28;20470;-78
2023/06/15 06:03:20;;;;;;;7.50;4.67;;;;;;;18.85;58.88;101839.88;5052046;28;20032;-78
2023/06/15 06:05:45;;;;;;;6.23;4.17;;;;;;;20.34;57.98;101839.69;5053855;28;20029;-79
2023/06/15 06:08:10;;;;;;;4.47;3.57;;;;;;;21.44;55.99;101848.25;5057924;28;20032;-78
2023/06/15 06:10:36;;;;;;;3.50;3.10;;;;;;;22.49;53.32;101842.47;5072048;28;20115;-83
2023/06/15 06:13:01;;;;;;;3.17;2.70;;;;;;;23.81;51.28;101854.19;5073519;28;20028;-83
2023/06/15 06:15:27;;;;;;;2.83;2.63;;;;;;;24.93;48.49;101844.25;5072789;28;20154;-82
2023/06/15 06:17:52;;;;;;;4.18;3.20;;;;;;;25.30;43.09;101841.13;5072246;28;20415;-81
2023/06/15 06:20:17;;;;;;;3.67;3.10;;;;;;;25.39;44.74;101847.69;5074250;28;20020;-81
2023/06/15 06:22:43;;;;;;;3.13;2.63;;;;;;;24.97;45.10;101843.09;5072097;28;20392;-80
2023/06/15 06:25:08;;;;;;;4.70;3.40;;;;;;;24.43;44.81;101843.59;5076260;28;20032;-81
2023/06/15 06:27:33;;;;;;;4.15;2.70;;;;;;;24.04;46.30;101851.09;5076456;28;20036;-80
2023/06/15 06:29:59;;;;;;;2.90;2.60;;;;;;;23.90;45.71;101851.84;5075654;28;20464;-80
2023/06/15 06:32:25;;;;;;;3.83;2.90;;;;;;;23.85;45.39;101843.31;5076024;28;20417;-80
2023/06/15 06:34:50;;;;;;;4.23;2.93;;;;;;;23.80;46.14;101841.88;5076501;28;20107;-80
2023/06/15 06:37:15;;;;;;;8.70;5.00;;;;;;;23.66;45.59;101851.44;5075283;28;20032;-80
2023/06/15 06:39:40;;;;;;;11.10;6.57;;;;;;;23.48;43.41;101847.97;5059330;28;20066;-80
2023/06/15 06:42:06;;;;;;;12.13;6.80;;;;;;;23.21;44.43;101850.31;5055763;28;20532;-79
2023/06/15 06:44:31;;;;;;;9.57;5.20;;;;;;;23.16;46.32;101853.19;5058557;28;20079;-80
2023/06/15 06:46:56;;;;;;;9.93;6.37;;;;;;;23.13;45.33;101851.56;5076289;28;20279;-80
2023/06/15 06:49:22;;;;;;;8.00;4.73;;;;;;;23.21;45.85;101855.63;5075377;28;20085;-80
2023/06/15 06:51:47;;;;;;;8.70;4.73;;;;;;;23.29;45.58;101856.94;5074768;28;20031;-80
2023/06/15 06:54:15;;;;;;;16.53;8.37;;;;;;;22.79;44.17;101853.31;5075899;28;20024;-80
2023/06/15 06:56:40;;;;;;;9.60;5.10;;;;;;;22.66;46.30;101854.88;5075969;28;20475;-80
2023/06/15 06:59:06;;;;;;;12.00;6.37;;;;;;;22.80;45.53;101857.63;5074869;28;20032;-80
2023/06/15 07:01:31;;;;;;;8.93;5.40;;;;;;;22.83;45.86;101849.56;5075511;28;20024;-80
2023/06/15 07:03:56;;;;;;;10.33;5.70;;;;;;;22.87;45.33;101852.06;5075696;28;20024;-80
2023/06/15 07:06:22;;;;;;;7.67;4.83;;;;;;;22.92;46.34;101855.28;5074868;28;20024;-80
2023/06/15 07:08:47;;;;;;;6.67;4.60;;;;;;;23.13;45.93;101863.94;5075710;28;20340;-80
2023/06/15 07:11:14;;;;;;;10.40;6.47;;;;;;;23.32;44.58;101858.56;5075162;28;20017;-80
2023/06/15 07:13:40;;;;;;;11.00;5.80;;;;;;;23.23;45.71;101854.59;5075053;28;20052;-80
2023/06/15 07:16:06;;;;;;;5.28;4.00;;;;;;;23.44;43.82;101854.38;5075431;28;20025;-80
2023/06/15 07:18:31;;;;;;;7.53;4.43;;;;;;;23.50;45.35;101858.50;5075307;28;20044;-80
2023/06/15 07:20:56;;;;;;;5.30;3.90;;;;;;;23.56;44.71;101858.16;5074231;28;20058;-80
2023/06/15 07:23:23;;;;;;;5.93;3.80;;;;;;;23.71;44.83;101862.63;5075085;28;20024;-80
2023/06/15 07:25:49;;;;;;;;;;;;;;;23.93;44.80;101856.13;5074950;28;20116;-80
2023/06/15 07:28:14;;;;;;;9.90;5.57;;;;;;;24.10;42.21;101864.97;5075025;28;20054;-80
2023/06/15 07:30:40;;;;;;;10.73;5.13;;;;;;;23.98;43.13;101850.63;5075522;28;20039;-80
2023/06/15 07:33:05;;;;;;;8.32;4.40;;;;;;;23.94;43.85;101859.66;5074490;28;20025;-80
2023/06/15 07:35:31;;;;;;;4.73;3.57;;;;;;;24.11;43.54;101864.88;5075136;28;20028;-80
2023/06/15 07:37:57;;;;;;;4.60;3.10;;;;;;;24.32;43.83;101861.97;5075230;28;20025;-80
2023/06/15 07:40:22;;;;;;;3.22;2.90;;;;;;;24.62;43.44;101863.75;5074213;28;20357;-80
2023/06/15 07:42:47;;;;;;;4.77;3.10;;;;;;;24.78;43.16;101858.44;5074765;28;20144;-80
2023/06/15 07:45:12;;;;;;;3.50;3.00;;;;;;;24.92;42.55;101857.59;5074200;28;20063;-80
2023/06/15 07:47:38;;;;;;;8.30;4.00;;;;;;;24.86;39.66;101856.16;5074437;28;20032;-80
2023/06/15 07:50:03;;;;;;;9.40;4.43;;;;;;;24.60;39.93;101853.22;5075796;28;20013;-80
2023/06/15 07:52:29;;;;;;;6.25;3.17;;;;;;;24.63;41.21;101857.50;5075191;28;20480;-80
2023/06/15 07:54:54;;;;;;;4.38;3.10;;;;;;;24.83;41.72;101853.69;5074035;28;20095;-80
2023/06/15 07:57:20;;;;;;;6.60;4.00;;;;;;;24.85;39.11;101857.09;5074158;28;20028;-80
2023/06/15 07:59:45;;;;;;;7.28;4.05;;;;;;;24.27;37.77;101853.41;5074852;28;20032;-79
2023/06/15 08:02:10;;;;;;;5.20;3.20;;;;;;;24.19;40.35;101860.00;5073916;28;20024;-80
2023/06/15 08:04:35;;;;;;;5.10;3.30;;;;;;;24.36;39.74;101860.81;5074916;28;20025;-80
2023/06/15 08:07:01;;;;;;;5.20;3.00;;;;;;;24.55;39.90;101865.03;5074882;28;20020;-80
2023/06/15 08:09:26;;;;;;;4.00;2.90;;;;;;;24.69;39.88;101859.81;5073103;28;20150;-80
2023/06/15 08:11:51;;;;;;;3.30;2.53;;;;;;;24.87;37.67;101854.38;5074497;28;20023;-80
2023/06/15 08:14:19;;;;;;;5.87;3.60;;;;;;;24.65;36.02;101856.47;5074591;28;20030;-80
2023/06/15 08:16:44;;;;;;;6.80;3.42;;;;;;;24.49;37.41;101856.50;5073625;28;20086;-80
2023/06/15 08:19:09;;;;;;;6.83;3.60;;;;;;;24.41;36.32;101853.47;5074877;28;20036;-80
2023/06/15 08:21:35;;;;;;;4.97;2.97;;;;;;;24.58;37.77;101862.22;5074589;28;20033;-80
2023/06/15 08:24:00;;;;;;;4.43;2.80;;;;;;;24.75;38.70;101862.13;5073271;28;20448;-80
2023/06/15 08:26:25;;;;;;;5.80;2.90;;;;;;;24.92;36.88;101862.91;5073853;28;20294;-80
2023/06/15 08:28:51;;;;;;;3.47;2.70;;;;;;;25.00;37.12;101862.44;5074206;28;20052;-80
2023/06/15 08:31:16;;;;;;;3.83;2.93;;;;;;;25.12;37.56;101865.19;5072904;28;20287;-80
2023/06/15 08:33:41;;;;;;;5.67;2.87;;;;;;;25.31;37.99;101860.56;5074401;28;20111;-80
2023/06/15 08:36:07;;;;;;;4.90;2.80;;;;;;;25.54;37.53;101864.50;5073018;28;20017;-80
2023/06/15 08:38:32;;;;;;;3.10;2.50;;;;;;;25.74;37.29;101868.53;5074151;28;20702;-79
2023/06/15 08:40:57;;;;;;;3.10;2.73;;;;;;;25.81;33.92;101856.56;5074005;28;20377;-80
2023/06/15 08:43:26;;;;;;;6.83;3.50;;;;;;;25.53;34.09;101860.97;5072349;28;20028;-81
2023/06/15 08:46:03;;;;;;;6.70;3.47;;;;;;;25.25;33.70;101859.13;5074267;28;20058;-80
2023/06/15 08:48:32;;;;;;;5.43;3.33;;;;;;;25.23;34.36;101855.72;5073925;28;20029;-80
2023/06/15 08:50:57;;;;;;;3.38;2.90;;;;;;;25.43;36.04;101851.84;5073004;28;20021;-80
2023/06/15 08:53:24;;;;;;;4.77;2.83;;;;;;;25.64;33.81;101852.31;5073551;28;20023;-80
2023/06/15 08:55:49;;;;;;;9.38;3.55;;;;;;;25.44;33.60;101849.09;5072903;28;20036;-83
2023/06/15 08:58:15;;;;;;;3.63;2.90;;;;;;;25.61;33.89;101857.81;5072168;28;20460;-80
2023/06/15 09:00:43;;;;;;;5.00;3.10;;;;;;;25.84;34.68;101855.50;5073780;28;20028;-79
2023/06/15 09:03:09;;;;;;;6.63;3.58;;;;;;;25.80;32.39;101848.66;5073198;28;20025;-80
2023/06/15 09:05:36;;;;;;;;;;;;;;;25.61;32.23;101849.00;5065780;28;20035;-80
2023/06/15 09:08:03;;;;;;;5.88;3.40;;;;;;;25.56;32.82;101862.56;5057621;28;19913;-80
2023/06/15 09:10:28;;;;;;;5.65;3.53;;;;;;;25.51;33.80;101848.72;5053097;28;20028;-80
2023/06/15 09:12:55;;;;;;;4.15;3.03;;;;;;;25.66;34.35;101846.91;5056736;28;20465;-80
2023/06/15 09:15:25;;;;;;;4.28;3.00;;;;;;;25.90;34.75;101849.78;5054013;28;20043;-80
2023/06/15 09:17:55;;;;;;;4.10;2.78;;;;;;;26.20;35.17;101846.94;5054637;28;20532;-80
2023/06/15 09:20:30;;;;;;;5.97;3.72;;;;;;;26.16;32.61;101845.47;5051917;28;20419;-81
2023/06/15 09:23:00;;;;;;;5.30;3.40;;;;;;;26.10;33.05;101856.50;5053438;28;20016;-80
2023/06/15 09:25:25;;;;;;;4.60;3.05;;;;;;;26.14;32.58;101851.81;5061229;28;20422;-80
2023/06/15 09:27:59;;;;;;;6.50;3.53;;;;;;;26.04;31.31;101855.06;5056443;28;20045;-80
2023/06/15 09:30:34;;;;;;;5.57;3.60;;;;;;;25.94;32.29;101856.63;5064010;28;20025;-80
2023/06/15 09:33:11;;;;;;;5.82;3.70;;;;;;;26.01;33.76;101846.44;5072727;28;20021;-80
2023/06/15 09:35:36;;;;;;;5.88;3.42;;;;;;;26.17;32.44;101855.16;5073347;28;20021;-80
2023/06/15 09:38:02;;;;;;;3.63;2.90;;;;;;;26.39;33.50;101851.06;5073389;28;20021;-80
2023/06/15 09:40:33;;;;;;;5.72;3.20;;;;;;;26.75;32.71;101844.19;5072228;28;20021;-80
2023/06/15 09:42:58;;;;;;;5.05;3.15;;;;;;;27.04;30.57;101848.50;5073500;28;20024;-80
2023/06/15 09:45:29;;;;;;;9.20;4.00;;;;;;;26.81;30.73;101838.50;5066156;28;20040;-80
2023/06/15 09:48:11;;;;;;;4.80;3.30;;;;;;;26.96;31.96;101836.56;5049159;28;20294;-80
2023/06/15 09:50:36;;;;;;;4.53;3.00;;;;;;;27.24;32.01;101839.97;5048339;28;20399;-80
2023/06/15 09:53:02;;;;;;;3.57;2.60;;;;;;;27.53;33.31;101842.41;5040038;28;20017;-80
2023/06/15 09:55:28;;;;;;;;;;;;;;;27.85;32.35;101847.19;5062228;28;20295;-80
2023/06/15 09:57:54;;;;;;;4.75;3.03;;;;;;;28.04;29.28;101845.84;5055939;28;19920;-81
2023/06/15 10:00:22;;;;;;;5.78;3.13;;;;;;;27.81;30.75;101840.38;5037515;28;20021;-80
2023/06/15 10:02:51;;;;;;;5.20;3.35;;;;;;;27.29;30.01;101850.31;5034364;28;20040;-80
2023/06/15 10:05:22;;;;;;;5.53;3.42;;;;;;;27.12;30.92;101838.19;5063196;28;20027;-81
2023/06/15 10:07:48;;;;;;;4.10;3.13;;;;;;;27.33;31.63;101845.59;5051814;28;20048;-80
2023/06/15 10:10:16;;;;;;;3.72;2.90;;;;;;;27.63;31.45;101845.25;5052170;28;20091;-80
2023/06/15 10:12:45;;;;;;;5.45;3.45;;;;;;;27.55;28.96;101839.59;5052560;28;20025;-80
2023/06/15 10:15:15;;;;;;;6.72;3.50;;;;;;;27.21;30.56;101845.53;5052059;28;20496;-80
2023/06/15 10:17:42;;;;;;;5.78;3.30;;;;;;;27.07;30.67;101837.63;5052918;28;20029;-82
2023/06/15 10:20:13;;;;;;;3.72;2.63;;;;;;;27.10;33.00;101840.09;5052368;28;20028;-81
2023/06/15 10:22:46;;;;;;;2.80;2.50;;;;;;;27.37;31.26;101831.94;5051786;28;20445;-80
2023/06/15 10:25:14;;;;;;;3.67;2.60;;;;;;;27.64;31.50;101843.44;5051960;28;20096;-80
2023/06/15 10:27:39;;;;;;;2.60;2.40;;;;;;;27.83;30.66;101838.44;5052152;28;20044;-80
2023/06/15 10:30:07;;;;;;;;;;;;;;;27.92;31.43;101847.59;5052320;28;20029;-80
2023/06/15 10:32:36;;;;;;;6.40;3.38;;;;;;;27.82;27.95;101844.75;5059458;28;20360;-80
2023/06/15 10:35:13;;;;;;;5.05;3.60;;;;;;;27.61;29.05;101841.84;5070074;28;20095;-80
2023/06/15 10:38:15;;;;;;;4.13;3.10;;;;;;;27.78;30.26;101837.97;5071916;28;20032;-80
2023/06/15 10:40:47;;;;;;;4.78;3.25;;;;;;;27.68;28.60;101837.75;5071078;28;20033;-80
2023/06/15 10:43:23;;;;;;;3.70;2.90;;;;;;;27.47;30.34;101840.19;5070959;28;20035;-80
2023/06/15 10:45:48;;;;;;;4.45;2.92;;;;;;;27.41;30.56;101833.44;5070466;28;20036;-80
2023/06/15 10:48:22;;;;;;;5.05;2.80;;;;;;;27.36;30.60;101838.25;5069331;28;20025;-80
2023/06/15 10:50:50;;;;;;;2.88;2.58;;;;;;;27.27;30.76;101839.75;5059593;28;20494;-80
2023/06/15 10:53:27;;;;;;;4.65;3.35;;;;;;;26.83;29.73;101833.03;5051143;28;20017;-80
2023/06/15 10:55:57;;;;;;;4.57;3.22;;;;;;;26.67;31.23;101833.22;5054670;28;20025;-80
2023/06/15 10:58:24;;;;;;;5.55;3.30;;;;;;;26.79;31.17;101827.09;5048957;28;20029;-80
2023/06/15 11:01:08;;;;;;;3.45;2.88;;;;;;;27.26;31.58;101834.53;5051387;28;20032;-80
2023/06/15 11:03:35;;;;;;;5.47;3.13;;;;;;;27.55;30.12;101832.47;5066522;28;20028;-79
2023/06/15 11:06:02;;;;;;;3.03;2.70;;;;;;;27.79;31.91;101830.78;5070089;28;20035;-80
2023/06/15 11:08:49;;;;;;;3.95;2.83;;;;;;;28.12;29.19;101827.50;5071628;28;20047;-80
2023/06/15 11:11:18;;;;;;;4.75;3.10;;;;;;;28.10;30.37;101826.75;5054666;28;20066;-80
2023/06/15 11:14:03;;;;;;;4.78;3.08;;;;;;;28.44;28.43;101818.88;5055483;28;20029;-80
2023/06/15 11:16:36;;;;;;;3.08;2.70;;;;;;;28.71;27.69;101819.53;5055071;28;20036;-80
2023/06/15 11:19:13;;;;;;;7.07;3.70;;;;;;;28.27;28.56;101829.94;5044431;28;20112;-81
2023/06/15 11:21:59;;;;;;;6.20;3.40;;;;;;;28.37;29.54;101822.97;5054897;28;20033;-87
2023/06/15 11:24:25;;;;;;;8.15;3.70;;;;;;;28.60;28.17;101826.53;5063922;28;20055;-83
2023/06/15 11:26:52;;;;;;;4.25;3.00;;;;;;;28.86;29.80;101825.53;5072439;28;20056;-82